createdAt,value
2017-08-30T00:01:25.403Z,65.30
2017-08-30T00:03:52.849Z,65.30
2017-08-30T00:06:20.289Z,65.30
2017-08-30T00:08:47.755Z,65.40
2017-08-30T00:11:15.192Z,65.50
2017-08-30T00:13:42.649Z,65.70
2017-08-30T00:16:10.092Z,66.40
2017-08-30T00:18:37.524Z,66.00
2017-08-30T00:21:04.977Z,66.30
2017-08-30T00:23:32.489Z,66.40
2017-08-30T00:26:11.811Z,66.80
2017-08-30T00:28:39.264Z,67.00
2017-08-30T00:31:06.781Z,66.90
2017-08-30T00:33:34.215Z,67.30
2017-08-30T00:36:01.784Z,67.50
2017-08-30T00:38:29.217Z,67.00
2017-08-30T00:40:56.735Z,67.10
2017-08-30T00:43:24.214Z,67.00
2017-08-30T00:45:51.767Z,67.20
2017-08-30T00:48:19.201Z,66.80
2017-08-30T00:50:46.645Z,67.20
2017-08-30T00:53:14.196Z,67.20
2017-08-30T00:55:41.737Z,67.10
2017-08-30T00:58:09.184Z,67.20
2017-08-30T01:00:36.718Z,67.20
2017-08-30T01:03:04.170Z,67.60
2017-08-30T01:05:31.700Z,67.50
2017-08-30T01:07:59.245Z,67.30
2017-08-30T01:10:26.789Z,67.50
2017-08-30T01:12:54.345Z,67.30
2017-08-30T01:15:21.788Z,67.30
2017-08-30T01:17:49.224Z,67.00
2017-08-30T01:20:16.764Z,67.30
2017-08-30T01:22:44.313Z,67.00
2017-08-30T01:25:11.766Z,66.90
2017-08-30T01:27:39.311Z,66.90
2017-08-30T01:30:06.748Z,66.90
2017-08-30T01:32:34.285Z,67.20
2017-08-30T01:35:01.830Z,67.10
2017-08-30T01:37:29.372Z,67.50
2017-08-30T01:39:56.921Z,67.60
2017-08-30T01:42:24.466Z,67.60
2017-08-30T01:44:52.004Z,67.80
2017-08-30T01:47:20.077Z,68.50
2017-08-30T01:49:47.523Z,68.70
2017-08-30T01:52:15.072Z,68.70
2017-08-30T01:54:42.610Z,68.90
2017-08-30T01:57:10.146Z,69.20
2017-08-30T01:59:37.583Z,69.70
2017-08-30T02:02:05.018Z,69.30
2017-08-30T02:04:32.474Z,68.70
2017-08-30T02:07:00.016Z,69.00
2017-08-30T02:09:27.568Z,68.90
2017-08-30T02:11:55.012Z,69.20
2017-08-30T02:14:22.550Z,69.30
2017-08-30T02:16:50.089Z,69.60
2017-08-30T02:19:17.541Z,69.50
2017-08-30T02:21:45.088Z,69.40
2017-08-30T02:24:12.543Z,69.60
2017-08-30T02:26:39.993Z,69.70
2017-08-30T02:29:07.440Z,69.90
2017-08-30T02:31:34.884Z,70.10
2017-08-30T02:34:02.417Z,70.00
2017-08-30T02:36:29.865Z,70.50
2017-08-30T02:38:57.309Z,70.60
2017-08-30T02:41:24.796Z,70.60
2017-08-30T02:43:52.209Z,70.70
2017-08-30T02:46:19.662Z,70.70
2017-08-30T02:48:47.113Z,70.80
2017-08-30T02:51:14.563Z,71.00
2017-08-30T02:53:42.022Z,70.90
2017-08-30T02:56:09.476Z,70.80
2017-08-30T02:58:36.932Z,70.60
2017-08-30T03:01:04.619Z,70.80
2017-08-30T03:03:32.117Z,71.70
2017-08-30T03:05:59.665Z,72.00
2017-08-30T03:08:27.213Z,71.70
2017-08-30T03:10:54.749Z,71.80
2017-08-30T03:13:22.297Z,72.10
2017-08-30T03:15:49.744Z,72.20
2017-08-30T03:18:17.288Z,72.00
2017-08-30T03:20:45.767Z,72.00
2017-08-30T03:23:13.328Z,72.00
2017-08-30T03:25:40.769Z,72.10
2017-08-30T03:28:08.289Z,72.50
2017-08-30T03:30:35.821Z,72.20
2017-08-30T03:33:03.443Z,72.70
2017-08-30T03:35:30.877Z,73.20
2017-08-30T03:37:58.330Z,73.60
2017-08-30T03:40:25.812Z,73.60
2017-08-30T03:42:53.273Z,74.10
2017-08-30T03:45:20.727Z,73.70
2017-08-30T03:47:48.183Z,73.90
2017-08-30T03:50:15.676Z,73.70
2017-08-30T03:52:43.221Z,73.70
2017-08-30T03:55:10.768Z,73.80
2017-08-30T03:57:38.237Z,74.00
2017-08-30T04:00:05.760Z,73.60
2017-08-30T04:02:33.204Z,73.90
2017-08-30T04:05:00.653Z,74.60
2017-08-30T04:07:28.180Z,74.10
2017-08-30T04:09:55.624Z,73.90
2017-08-30T04:12:23.172Z,74.10
2017-08-30T04:14:50.638Z,74.10
2017-08-30T04:17:18.129Z,74.60
2017-08-30T04:19:45.601Z,75.00
2017-08-30T04:22:13.044Z,74.20
2017-08-30T04:24:40.589Z,74.00
2017-08-30T04:27:08.029Z,73.90
2017-08-30T04:29:35.473Z,73.80
2017-08-30T04:32:02.929Z,73.70
2017-08-30T04:34:30.373Z,73.60
2017-08-30T04:36:57.834Z,74.20
2017-08-30T04:39:25.268Z,73.80
2017-08-30T04:41:52.717Z,73.70
2017-08-30T04:44:20.304Z,73.60
2017-08-30T04:46:47.760Z,73.60
2017-08-30T04:49:15.217Z,73.70
2017-08-30T04:51:42.660Z,74.00
2017-08-30T04:54:10.126Z,73.90
2017-08-30T04:56:37.654Z,73.60
2017-08-30T04:59:05.105Z,73.80
2017-08-30T05:01:32.553Z,74.80
2017-08-30T05:03:59.997Z,74.20
2017-08-30T05:06:27.453Z,74.20
2017-08-30T05:08:54.908Z,73.40
2017-08-30T05:11:22.348Z,73.60
2017-08-30T05:13:49.817Z,73.60
2017-08-30T05:16:17.257Z,73.70
2017-08-30T05:18:44.700Z,73.10
2017-08-30T05:21:12.159Z,73.20
2017-08-30T05:23:39.608Z,73.00
2017-08-30T05:26:07.069Z,73.00
2017-08-30T05:28:34.528Z,72.90
2017-08-30T05:31:01.990Z,72.90
2017-08-30T05:33:29.440Z,72.60
2017-08-30T05:35:56.896Z,72.80
2017-08-30T05:38:24.353Z,72.60
2017-08-30T05:40:51.809Z,72.30
2017-08-30T05:43:19.327Z,72.00
2017-08-30T05:45:46.789Z,72.00
2017-08-30T05:48:14.233Z,71.60
2017-08-30T05:50:41.689Z,71.70
2017-08-30T05:53:20.258Z,71.50
2017-08-30T05:55:57.613Z,71.30
2017-08-30T05:58:25.067Z,71.10
2017-08-30T06:00:52.504Z,70.90
2017-08-30T06:03:19.980Z,70.70
2017-08-30T06:05:47.433Z,70.20
2017-08-30T06:08:14.883Z,70.20
2017-08-30T06:10:42.318Z,69.50
2017-08-30T06:13:09.876Z,69.50
2017-08-30T06:15:37.321Z,68.80
2017-08-30T06:18:04.781Z,68.00
2017-08-30T06:20:32.224Z,67.40
2017-08-30T06:22:59.751Z,66.30
2017-08-30T06:25:27.209Z,65.00
2017-08-30T06:27:54.650Z,64.10
2017-08-30T06:30:22.139Z,62.80
2017-08-30T06:32:49.612Z,61.80
2017-08-30T06:35:17.062Z,61.10
2017-08-30T06:37:44.601Z,59.80
2017-08-30T06:40:12.074Z,59.90
2017-08-30T06:42:39.523Z,59.10
2017-08-30T06:45:06.989Z,58.80
2017-08-30T06:47:34.565Z,58.20
2017-08-30T06:50:02.001Z,56.20
2017-08-30T06:52:29.458Z,56.00
2017-08-30T06:54:57.020Z,55.70
2017-08-30T06:57:24.477Z,55.30
2017-08-30T06:59:52.468Z,55.10
2017-08-30T07:02:19.937Z,54.00
2017-08-30T07:04:47.397Z,53.90
2017-08-30T07:07:14.928Z,53.80
2017-08-30T07:09:42.374Z,53.80
2017-08-30T07:12:09.840Z,52.30
2017-08-30T07:14:37.285Z,50.60
2017-08-30T07:17:04.716Z,50.20
2017-08-30T07:19:32.241Z,50.90
2017-08-30T07:21:59.827Z,50.50
2017-08-30T07:24:27.289Z,49.80
2017-08-30T07:26:54.812Z,49.30
2017-08-30T07:29:22.263Z,48.70
2017-08-30T07:31:49.701Z,46.80
2017-08-30T07:34:17.156Z,47.50
2017-08-30T07:36:44.613Z,45.90
2017-08-30T07:39:12.068Z,46.40
2017-08-30T07:41:39.529Z,47.10
2017-08-30T07:44:06.976Z,47.00
2017-08-30T07:46:34.429Z,48.20
2017-08-30T07:49:01.887Z,47.10
2017-08-30T07:51:29.352Z,46.30
2017-08-30T07:53:56.814Z,45.40
2017-08-30T07:56:24.260Z,45.50
2017-08-30T07:58:51.715Z,45.60
2017-08-30T08:01:19.249Z,45.70
2017-08-30T08:03:46.684Z,45.00
2017-08-30T08:06:14.128Z,45.10
2017-08-30T08:08:41.680Z,44.50
2017-08-30T08:11:09.124Z,44.30
2017-08-30T08:13:36.599Z,44.50
2017-08-30T08:16:04.041Z,44.60
2017-08-30T08:18:31.480Z,44.80
2017-08-30T08:20:58.936Z,44.70
2017-08-30T08:23:26.385Z,44.40
2017-08-30T08:25:53.846Z,43.10
2017-08-30T08:28:21.303Z,43.40
2017-08-30T08:30:48.752Z,43.20
2017-08-30T08:33:16.209Z,42.40
2017-08-30T08:35:43.636Z,42.10
2017-08-30T08:38:11.089Z,41.70
2017-08-30T08:40:38.539Z,42.20
2017-08-30T08:43:05.996Z,40.60
2017-08-30T08:45:33.451Z,40.50
2017-08-30T08:48:00.898Z,40.80
2017-08-30T08:50:28.333Z,39.70
2017-08-30T08:55:29.609Z,40.60
2017-08-30T08:57:57.083Z,40.70
2017-08-30T09:00:24.525Z,40.10
2017-08-30T09:02:51.969Z,40.20
2017-08-30T09:05:19.413Z,39.30
2017-08-30T09:07:46.858Z,40.80
2017-08-30T09:10:14.315Z,40.30
2017-08-30T09:12:41.778Z,39.90
2017-08-30T09:15:09.229Z,40.70
2017-08-30T09:17:36.677Z,40.10
2017-08-30T09:20:04.138Z,40.40
2017-08-30T09:22:31.595Z,38.90
2017-08-30T09:24:59.085Z,39.30
2017-08-30T09:27:26.521Z,40.20
2017-08-30T09:29:54.068Z,40.40
2017-08-30T09:32:21.523Z,40.00
2017-08-30T09:34:48.953Z,39.60
2017-08-30T09:37:16.401Z,39.20
2017-08-30T09:39:43.842Z,39.00
2017-08-30T09:42:11.280Z,38.40
2017-08-30T09:44:38.733Z,37.60
2017-08-30T09:47:06.177Z,37.50
2017-08-30T09:49:33.618Z,37.30
2017-08-30T09:52:01.075Z,38.00
2017-08-30T09:54:28.515Z,38.90
2017-08-30T09:56:55.968Z,38.80
2017-08-30T09:59:23.407Z,39.00
2017-08-30T10:01:50.860Z,39.10
2017-08-30T10:04:18.312Z,37.80
2017-08-30T10:06:45.770Z,38.60
2017-08-30T10:09:13.210Z,38.40
2017-08-30T10:11:40.655Z,38.00
2017-08-30T10:14:08.133Z,36.60
2017-08-30T10:16:35.560Z,37.00
2017-08-30T10:19:03.008Z,35.90
2017-08-30T10:21:30.795Z,37.00
2017-08-30T10:23:59.040Z,36.30
2017-08-30T10:26:26.603Z,36.30
2017-08-30T10:28:54.054Z,35.10
2017-08-30T10:31:21.488Z,35.70
2017-08-30T10:33:48.978Z,36.10
2017-08-30T10:36:16.425Z,36.20
2017-08-30T10:38:43.880Z,35.20
2017-08-30T10:41:11.321Z,35.70
2017-08-30T10:43:38.778Z,35.70
2017-08-30T10:46:06.229Z,36.50
2017-08-30T10:48:33.659Z,37.10
2017-08-30T10:51:01.101Z,37.60
2017-08-30T10:53:28.553Z,37.60
2017-08-30T10:55:56.018Z,39.10
2017-08-30T10:58:23.485Z,36.70
2017-08-30T11:00:50.925Z,37.50
2017-08-30T11:03:18.365Z,38.10
2017-08-30T11:05:45.825Z,39.10
2017-08-30T11:08:13.264Z,40.00
2017-08-30T11:10:41.340Z,41.00
2017-08-30T11:13:08.788Z,41.00
2017-08-30T11:15:36.255Z,39.70
2017-08-30T11:18:03.694Z,40.00
2017-08-30T11:20:31.160Z,39.10
2017-08-30T11:22:58.600Z,40.50
2017-08-30T11:25:26.048Z,38.90
2017-08-30T11:27:53.579Z,40.20
2017-08-30T11:30:21.017Z,40.50
2017-08-30T11:32:48.460Z,40.60
2017-08-30T11:35:15.905Z,41.10
2017-08-30T11:37:43.357Z,40.60
2017-08-30T11:40:10.780Z,40.60
2017-08-30T11:42:38.225Z,39.50
2017-08-30T11:45:05.685Z,40.50
2017-08-30T11:47:33.116Z,41.40
2017-08-30T11:50:00.648Z,39.40
2017-08-30T11:52:28.226Z,40.10
2017-08-30T11:54:55.739Z,39.40
2017-08-30T11:57:23.180Z,38.60
2017-08-30T11:59:50.721Z,39.40
2017-08-30T12:02:18.165Z,38.20
2017-08-30T12:04:45.617Z,36.80
2017-08-30T12:07:13.052Z,34.80
2017-08-30T12:09:40.513Z,34.20
2017-08-30T12:12:07.956Z,33.80
2017-08-30T12:14:35.435Z,35.30
2017-08-30T12:17:02.901Z,34.30
2017-08-30T12:19:30.364Z,34.20
2017-08-30T12:21:57.808Z,34.80
2017-08-30T12:24:25.272Z,34.20
2017-08-30T12:26:52.705Z,35.00
2017-08-30T12:29:20.152Z,35.00
2017-08-30T12:31:47.607Z,35.40
2017-08-30T12:34:15.121Z,35.60
2017-08-30T12:36:48.166Z,35.10
2017-08-30T12:39:21.278Z,34.70
2017-08-30T12:41:48.720Z,34.90
2017-08-30T12:44:16.169Z,34.90
2017-08-30T12:46:43.612Z,35.10
2017-08-30T12:49:11.049Z,34.20
2017-08-30T12:51:38.540Z,34.70
2017-08-30T12:54:05.984Z,34.20
2017-08-30T12:56:33.479Z,34.30
2017-08-30T12:59:00.917Z,34.40
2017-08-30T13:01:28.366Z,33.90
2017-08-30T13:03:55.810Z,33.80
2017-08-30T13:06:23.240Z,33.60
2017-08-30T13:08:50.763Z,33.80
2017-08-30T13:11:18.201Z,33.60
2017-08-30T13:13:45.648Z,32.90
2017-08-30T13:16:13.121Z,33.10
2017-08-30T13:18:40.573Z,33.80
2017-08-30T13:21:08.023Z,34.00
2017-08-30T13:23:36.309Z,33.20
2017-08-30T13:26:03.758Z,32.90
2017-08-30T13:28:31.196Z,33.00
2017-08-30T13:30:58.838Z,33.30
2017-08-30T13:33:26.346Z,33.40
2017-08-30T13:35:53.791Z,33.40
2017-08-30T13:38:21.330Z,33.20
2017-08-30T13:40:48.756Z,33.90
2017-08-30T13:43:16.202Z,33.70
2017-08-30T13:45:43.641Z,33.50
2017-08-30T13:48:11.094Z,34.30
2017-08-30T13:50:38.537Z,33.90
2017-08-30T13:53:05.991Z,34.40
2017-08-30T13:55:33.456Z,34.40
2017-08-30T13:58:00.899Z,34.90
2017-08-30T14:00:28.380Z,32.20
2017-08-30T14:02:55.810Z,32.90
2017-08-30T14:05:23.255Z,33.30
2017-08-30T14:07:50.696Z,33.30
2017-08-30T14:10:18.136Z,34.00
2017-08-30T14:12:45.576Z,33.90
2017-08-30T14:15:13.895Z,33.30
2017-08-30T14:17:41.332Z,33.10
2017-08-30T14:20:08.769Z,33.30
2017-08-30T14:22:36.205Z,33.70
2017-08-30T14:25:03.650Z,33.80
2017-08-30T14:27:31.169Z,32.50
2017-08-30T14:29:58.589Z,32.80
2017-08-30T14:32:26.057Z,32.50
2017-08-30T14:34:53.495Z,32.40
2017-08-30T14:37:20.932Z,32.30
2017-08-30T14:39:48.433Z,32.40
2017-08-30T14:42:16.309Z,32.50
2017-08-30T14:44:43.740Z,32.00
2017-08-30T14:47:11.188Z,31.80
2017-08-30T14:49:38.629Z,32.60
2017-08-30T14:52:06.100Z,32.40
2017-08-30T14:54:33.529Z,31.30
2017-08-30T14:57:00.973Z,31.70
2017-08-30T14:59:28.413Z,32.10
2017-08-30T15:01:56.189Z,31.90
2017-08-30T15:04:23.619Z,32.00
2017-08-30T15:06:51.057Z,32.40
2017-08-30T15:09:18.508Z,32.50
2017-08-30T15:11:45.945Z,32.30
2017-08-30T15:14:13.402Z,32.50
2017-08-30T15:16:40.858Z,32.50
2017-08-30T15:19:08.329Z,32.90
2017-08-30T15:21:35.778Z,33.40
2017-08-30T15:24:04.062Z,33.70
2017-08-30T15:26:31.493Z,34.30
2017-08-30T15:28:58.949Z,34.40
2017-08-30T15:31:26.397Z,34.00
2017-08-30T15:33:53.857Z,34.20
2017-08-30T15:36:21.316Z,34.20
2017-08-30T15:38:48.768Z,34.90
2017-08-30T15:41:16.326Z,34.70
2017-08-30T15:43:43.753Z,34.90
2017-08-30T15:46:11.305Z,35.50
2017-08-30T15:48:38.741Z,34.80
2017-08-30T15:51:06.180Z,34.30
2017-08-30T15:53:33.613Z,34.60
2017-08-30T15:56:01.064Z,33.10
2017-08-30T15:58:28.529Z,33.10
2017-08-30T16:00:55.978Z,32.70
2017-08-30T16:03:23.404Z,33.20
2017-08-30T16:05:50.840Z,33.90
2017-08-30T16:08:18.273Z,34.00
2017-08-30T16:10:45.737Z,33.80
2017-08-30T16:13:13.168Z,34.10
2017-08-30T16:15:40.688Z,33.60
2017-08-30T16:18:08.121Z,33.70
2017-08-30T16:20:35.565Z,34.40
2017-08-30T16:23:03.008Z,35.00
2017-08-30T16:25:30.441Z,35.10
2017-08-30T16:27:57.898Z,35.90
2017-08-30T16:30:25.318Z,35.90
2017-08-30T16:32:52.761Z,36.60
2017-08-30T16:35:20.202Z,36.60
2017-08-30T16:37:47.656Z,36.60
2017-08-30T16:40:15.097Z,36.50
2017-08-30T16:42:42.613Z,36.40
2017-08-30T16:45:10.130Z,37.60
2017-08-30T16:47:37.681Z,39.10
2017-08-30T16:50:05.194Z,40.10
2017-08-30T16:52:32.670Z,40.60
2017-08-30T16:55:00.274Z,41.20
2017-08-30T16:57:27.735Z,42.10
2017-08-30T16:59:55.213Z,42.50
2017-08-30T17:02:22.676Z,42.80
2017-08-30T17:04:50.117Z,43.20
2017-08-30T17:07:17.550Z,43.40
2017-08-30T17:09:45.005Z,43.80
2017-08-30T17:12:12.448Z,44.00
2017-08-30T17:14:39.897Z,44.50
2017-08-30T17:17:07.341Z,44.70
2017-08-30T17:19:34.803Z,45.00
2017-08-30T17:22:02.299Z,44.80
2017-08-30T17:24:29.749Z,44.90
2017-08-30T17:26:57.217Z,45.20
2017-08-30T17:29:24.665Z,45.30
2017-08-30T17:31:52.121Z,45.50
2017-08-30T17:34:19.549Z,45.60
2017-08-30T17:36:46.997Z,46.20
2017-08-30T17:39:14.517Z,46.20
2017-08-30T17:41:42.024Z,46.50
2017-08-30T17:44:09.573Z,46.70
2017-08-30T17:46:37.134Z,46.90
2017-08-30T17:49:04.572Z,47.10
2017-08-30T17:51:32.024Z,47.20
2017-08-30T17:53:59.460Z,47.40
2017-08-30T17:56:26.905Z,47.30
2017-08-30T17:58:54.424Z,47.60
2017-08-30T18:01:21.870Z,48.20
2017-08-30T18:03:49.345Z,47.90
2017-08-30T18:06:16.794Z,49.00
2017-08-30T18:08:44.242Z,48.50
2017-08-30T18:11:11.708Z,48.70
2017-08-30T18:13:39.172Z,48.60
2017-08-30T18:16:06.616Z,48.60
2017-08-30T18:18:34.072Z,48.40
2017-08-30T18:21:01.629Z,48.70
2017-08-30T18:23:29.096Z,49.40
2017-08-30T18:25:56.570Z,49.70
2017-08-30T18:28:24.038Z,49.90
2017-08-30T18:30:51.489Z,49.90
2017-08-30T18:33:18.934Z,50.50
2017-08-30T18:35:46.387Z,50.50
2017-08-30T18:38:13.826Z,50.80
2017-08-30T18:40:41.370Z,51.80
2017-08-30T18:43:08.877Z,51.90
2017-08-30T18:45:36.348Z,51.90
2017-08-30T18:48:03.792Z,52.20
2017-08-30T18:50:31.253Z,52.10
2017-08-30T18:52:58.796Z,52.00
2017-08-30T18:55:26.273Z,52.00
2017-08-30T18:57:53.769Z,51.80
2017-08-30T19:00:21.211Z,51.90
2017-08-30T19:02:48.773Z,52.10
2017-08-30T19:05:16.275Z,51.90
2017-08-30T19:07:43.744Z,52.10
2017-08-30T19:10:11.197Z,52.10
2017-08-30T19:12:38.644Z,52.30
2017-08-30T19:15:06.093Z,52.30
2017-08-30T19:17:33.543Z,53.00
2017-08-30T19:20:00.979Z,52.50
2017-08-30T19:22:28.424Z,52.90
2017-08-30T19:24:55.862Z,53.00
2017-08-30T19:27:23.316Z,52.90
2017-08-30T19:29:50.828Z,53.30
2017-08-30T19:32:18.285Z,53.50
2017-08-30T19:34:45.725Z,53.80
2017-08-30T19:37:13.261Z,53.90
2017-08-30T19:39:40.711Z,54.10
2017-08-30T19:42:08.147Z,55.10
2017-08-30T19:44:35.596Z,54.60
2017-08-30T19:47:03.127Z,55.00
2017-08-30T19:49:30.585Z,55.70
2017-08-30T19:51:58.070Z,55.10
2017-08-30T19:54:25.509Z,55.50
2017-08-30T19:56:52.956Z,55.80
2017-08-30T19:59:20.416Z,56.00
2017-08-30T20:01:47.862Z,56.40
2017-08-30T20:04:15.296Z,56.40
2017-08-30T20:06:42.741Z,56.20
2017-08-30T20:09:10.270Z,56.00
2017-08-30T20:11:37.732Z,56.20
2017-08-30T20:14:05.178Z,56.30
2017-08-30T20:16:32.628Z,56.50
2017-08-30T20:19:00.077Z,56.80
2017-08-30T20:21:27.532Z,57.30
2017-08-30T20:23:55.131Z,57.50
2017-08-30T20:26:22.636Z,57.80
2017-08-30T20:28:50.065Z,58.00
2017-08-30T20:31:17.525Z,58.20
2017-08-30T20:33:44.969Z,58.40
2017-08-30T20:36:12.412Z,58.40
2017-08-30T20:38:39.844Z,58.70
2017-08-30T20:41:07.383Z,59.00
2017-08-30T20:43:34.833Z,59.10
2017-08-30T20:46:02.331Z,59.10
2017-08-30T20:48:29.778Z,59.50
2017-08-30T20:50:57.223Z,59.70
2017-08-30T20:53:24.680Z,59.50
2017-08-30T20:55:52.160Z,59.30
2017-08-30T20:58:19.609Z,59.40
2017-08-30T21:00:47.057Z,59.60
2017-08-30T21:03:14.511Z,59.60
2017-08-30T21:05:41.952Z,59.60
2017-08-30T21:08:09.407Z,59.90
2017-08-30T21:10:36.864Z,60.00
2017-08-30T21:13:04.445Z,60.10
2017-08-30T21:15:31.907Z,60.10
2017-08-30T21:17:59.360Z,60.20
2017-08-30T21:20:26.813Z,60.50
2017-08-30T21:22:54.279Z,60.90
2017-08-30T21:25:21.717Z,61.50
2017-08-30T21:27:49.172Z,61.70
2017-08-30T21:30:16.621Z,61.90
2017-08-30T21:32:44.076Z,62.50
2017-08-30T21:35:11.532Z,62.50
2017-08-30T21:37:38.988Z,62.50
2017-08-30T21:40:06.509Z,62.30
2017-08-30T21:42:33.953Z,62.60
2017-08-30T21:45:01.419Z,62.50
2017-08-30T21:47:28.857Z,62.50
2017-08-30T21:49:56.324Z,62.50
2017-08-30T21:52:23.770Z,62.30
2017-08-30T21:54:51.232Z,62.20
2017-08-30T21:57:18.684Z,62.30
2017-08-30T21:59:46.142Z,62.20
2017-08-30T22:02:13.601Z,62.20
2017-08-30T22:04:41.062Z,62.10
2017-08-30T22:07:08.505Z,62.10
2017-08-30T22:09:35.954Z,61.90
2017-08-30T22:12:03.410Z,61.50
2017-08-30T22:14:30.856Z,60.20
2017-08-30T22:16:58.348Z,59.10
2017-08-30T22:19:25.792Z,59.70
2017-08-30T22:21:53.273Z,59.50
2017-08-30T22:24:20.721Z,60.30
2017-08-30T22:26:48.151Z,61.50
2017-08-30T22:29:15.596Z,63.10
2017-08-30T22:31:43.041Z,65.60
2017-08-30T22:34:10.512Z,67.70
2017-08-30T22:36:37.952Z,69.10
2017-08-30T22:39:05.452Z,70.00
2017-08-30T22:41:32.888Z,71.90
2017-08-30T22:44:00.342Z,73.30
2017-08-30T22:46:27.789Z,74.50
2017-08-30T22:48:55.244Z,75.20
2017-08-30T22:51:22.700Z,76.50
2017-08-30T22:53:50.132Z,76.20
2017-08-30T22:56:17.711Z,76.80
2017-08-30T22:58:45.141Z,77.30
2017-08-30T23:01:12.595Z,77.10
2017-08-30T23:03:40.042Z,77.30
2017-08-30T23:06:07.489Z,77.30
2017-08-30T23:08:34.924Z,77.20
2017-08-30T23:11:02.385Z,77.60
2017-08-30T23:13:29.812Z,77.20
2017-08-30T23:15:57.260Z,77.30
2017-08-30T23:18:24.724Z,77.80
2017-08-30T23:20:52.175Z,77.90
2017-08-30T23:23:19.617Z,78.10
2017-08-30T23:25:47.156Z,78.70
2017-08-30T23:28:14.611Z,78.60
2017-08-30T23:30:42.053Z,78.10
2017-08-30T23:33:09.496Z,78.70
2017-08-30T23:35:36.941Z,78.00
2017-08-30T23:38:04.384Z,77.60
2017-08-30T23:40:31.837Z,77.60
2017-08-30T23:42:59.297Z,76.60
2017-08-30T23:45:26.731Z,76.10
2017-08-30T23:47:54.155Z,75.00
2017-08-30T23:50:21.595Z,75.10
2017-08-30T23:52:49.021Z,74.80
2017-08-30T23:55:16.468Z,74.70
2017-08-30T23:57:43.906Z,74.00
